createdAt,value
2022-08-31T00:01:56.916Z,1020.5
2022-08-31T00:07:44.187Z,1020.4
2022-08-31T00:13:30.454Z,1020.5
2022-08-31T00:19:10.913Z,1020.6
2022-08-31T00:24:51.121Z,1020.7
2022-08-31T00:30:31.269Z,1020.8
2022-08-31T00:36:11.685Z,1020.9
2022-08-31T00:41:51.780Z,1020.9
2022-08-31T00:47:32.363Z,1021.1
2022-08-31T00:53:15.020Z,1021.1
2022-08-31T00:58:55.916Z,1021.2
2022-08-31T01:04:36.181Z,1021.3
2022-08-31T01:10:19.470Z,1021.4
2022-08-31T01:15:59.853Z,1021.5
2022-08-31T01:21:40.392Z,1021.5
2022-08-31T01:27:20.559Z,1021.7
2022-08-31T01:33:00.690Z,1022
2022-08-31T01:38:40.988Z,1022.3
2022-08-31T01:44:21.107Z,1023
2022-08-31T01:50:01.157Z,1024.9
2022-08-31T01:55:41.069Z,1025.4
2022-08-31T02:01:34.900Z,1025.9
2022-08-31T02:07:15.727Z,1026.2
2022-08-31T02:12:55.963Z,1026.3
2022-08-31T02:18:36.146Z,1026.3
2022-08-31T02:24:16.200Z,1026.3
2022-08-31T02:29:56.668Z,1026.3
2022-08-31T02:35:36.868Z,1026.4
2022-08-31T02:41:16.991Z,1026.3
2022-08-31T02:46:57.037Z,1026.2
2022-08-31T02:52:37.196Z,1026.2
2022-08-31T02:58:24.385Z,1021.2
2022-08-31T03:04:04.805Z,1021.2
2022-08-31T03:09:45.043Z,1021.2
2022-08-31T03:15:25.371Z,1020.8
2022-08-31T03:21:05.612Z,1020.9
2022-08-31T03:26:45.903Z,1021
2022-08-31T03:32:25.966Z,1021.2
2022-08-31T03:38:07.012Z,1021.3
2022-08-31T03:51:18.287Z,1021.5
2022-08-31T03:57:01.538Z,1021.4
2022-08-31T04:02:48.030Z,1021.5
2022-08-31T04:08:33.264Z,1021.4
2022-08-31T04:14:18.875Z,1021.4
2022-08-31T04:20:01.050Z,1021.3
2022-08-31T04:25:55.270Z,1021.4
2022-08-31T04:31:39.115Z,1021.3
2022-08-31T04:37:20.267Z,1021.2
2022-08-31T04:43:25.896Z,1021
2022-08-31T04:49:06.430Z,1020.8
2022-08-31T04:54:46.651Z,1020.8
2022-08-31T05:00:26.781Z,1020.8
2022-08-31T05:06:07.314Z,1020.7
2022-08-31T05:11:47.599Z,1020.7
2022-08-31T05:17:27.769Z,1020.6
2022-08-31T05:23:07.633Z,1020.4
2022-08-31T05:28:47.764Z,1020.5
2022-08-31T05:34:27.960Z,1020.4
2022-08-31T05:40:09.599Z,1020.4
2022-08-31T05:45:50.670Z,1020.4
2022-08-31T05:51:41.125Z,1020.4
2022-08-31T05:57:27.147Z,1020.4
2022-08-31T06:03:07.866Z,1020.5
2022-08-31T06:08:51.377Z,1020.5
2022-08-31T06:14:32.138Z,1020.5
2022-08-31T06:20:18.390Z,1020.6
2022-08-31T06:25:58.755Z,1020.5
2022-08-31T06:31:42.622Z,1020.6
2022-08-31T06:37:23.401Z,1020.7
2022-08-31T06:43:03.689Z,1020.6
2022-08-31T06:48:43.830Z,1020.7
2022-08-31T06:54:31.304Z,1020.7
2022-08-31T07:00:11.947Z,1020.8
2022-08-31T07:05:52.283Z,1020.8
2022-08-31T07:11:32.506Z,1020.8
2022-08-31T07:17:13.151Z,1020.8
2022-08-31T07:22:53.523Z,1020.7
2022-08-31T07:28:33.590Z,1020.8
2022-08-31T07:34:13.957Z,1020.9
2022-08-31T07:39:58.225Z,1020.8
2022-08-31T07:45:47.490Z,1020.8
2022-08-31T07:51:28.914Z,1020.9
2022-08-31T07:57:09.892Z,1020.9
2022-08-31T08:02:54.232Z,1020.9
2022-08-31T08:13:51.653Z,1021.1
2022-08-31T08:19:34.503Z,1021.2
2022-08-31T08:25:26.235Z,1021.2
2022-08-31T08:31:07.882Z,1021.3
2022-08-31T08:36:49.290Z,1021.3
2022-08-31T08:42:29.634Z,1021.4
2022-08-31T08:48:10.198Z,1021.4
2022-08-31T08:53:50.703Z,1021.5
2022-08-31T08:59:31.012Z,1021.4
2022-08-31T09:05:11.211Z,1021.3
2022-08-31T09:10:51.578Z,1021.3
2022-08-31T09:16:42.518Z,1021.2
2022-08-31T09:22:33.026Z,1028.9
2022-08-31T09:28:13.307Z,1028.6
2022-08-31T09:33:53.862Z,1028.4
2022-08-31T09:39:46.713Z,1027.8
2022-08-31T09:45:29.188Z,1026.8
2022-08-31T09:51:10.034Z,1025.9
2022-08-31T09:56:50.574Z,1024.8
2022-08-31T10:02:30.621Z,1024.8
2022-08-31T10:08:10.985Z,1024.6
2022-08-31T10:14:00.573Z,1024.4
2022-08-31T10:19:49.028Z,1024.1
2022-08-31T10:25:30.306Z,1024.4
2022-08-31T10:31:10.682Z,1024.4
2022-08-31T10:36:50.923Z,1025.4
2022-08-31T10:42:31.586Z,1025.2
2022-08-31T10:48:11.765Z,1024.4
2022-08-31T10:53:57.651Z,1024.2
2022-08-31T10:59:47.566Z,1023.9
2022-08-31T11:05:28.131Z,1023.5
2022-08-31T11:11:09.503Z,1023.3
2022-08-31T11:16:52.844Z,1022.8
2022-08-31T11:22:38.720Z,1022.6
2022-08-31T11:28:24.354Z,1022
2022-08-31T11:34:22.968Z,1021.6
2022-08-31T11:40:04.350Z,1021.5
2022-08-31T11:46:05.628Z,1021.3
2022-08-31T11:51:46.561Z,1021.1
2022-08-31T11:57:38.026Z,1020.9
2022-08-31T12:03:27.112Z,1020.8
2022-08-31T12:09:10.190Z,1020.7
2022-08-31T12:14:59.892Z,1020.7
2022-08-31T12:20:46.554Z,1020.6
2022-08-31T12:26:27.175Z,1020.6
2022-08-31T12:32:11.607Z,1020.4
2022-08-31T12:43:38.249Z,1020.5
2022-08-31T12:49:19.503Z,1020.5
2022-08-31T12:54:59.992Z,1020.5
2022-08-31T13:00:40.101Z,1020.4
2022-08-31T13:06:25.922Z,1020.3
2022-08-31T13:12:06.273Z,1020.2
2022-08-31T13:17:49.735Z,1020.2
2022-08-31T13:23:30.054Z,1020.1
2022-08-31T13:29:12.544Z,1020.1
2022-08-31T13:34:55.740Z,1020.1
2022-08-31T13:40:42.203Z,1020
2022-08-31T13:46:44.528Z,1020
2022-08-31T13:52:27.649Z,1020.1
2022-08-31T13:58:24.768Z,1020
2022-08-31T14:04:08.246Z,1019.9
2022-08-31T14:09:52.520Z,1019.9
2022-08-31T14:15:32.998Z,1019.9
2022-08-31T14:21:24.590Z,1019.8
2022-08-31T14:27:04.634Z,1019.8
2022-08-31T14:32:44.530Z,1019.8
2022-08-31T14:38:24.812Z,1019.8
2022-08-31T14:44:05.750Z,1019.7
2022-08-31T14:49:46.680Z,1019.7
2022-08-31T14:55:26.857Z,1019.6
2022-08-31T15:01:07.819Z,1019.4
2022-08-31T15:06:48.673Z,1019.5
2022-08-31T15:12:28.996Z,1019.5
2022-08-31T15:18:09.193Z,1019.5
2022-08-31T15:23:49.641Z,1019.4
2022-08-31T15:29:30.741Z,1019.4
2022-08-31T15:35:10.708Z,1019.4
2022-08-31T15:40:55.321Z,1019.3
2022-08-31T15:46:36.098Z,1019.4
2022-08-31T15:52:52.187Z,1019.4
2022-08-31T15:58:33.262Z,1019.4
2022-08-31T16:04:13.563Z,1019.5
2022-08-31T16:15:13.340Z,1019.5
2022-08-31T16:20:58.632Z,1019.4
2022-08-31T16:26:38.968Z,1019.4
2022-08-31T16:32:21.946Z,1019.4
2022-08-31T16:38:02.673Z,1019.4
2022-08-31T16:43:43.133Z,1019.4
2022-08-31T16:49:23.471Z,1019.3
2022-08-31T16:55:03.852Z,1019.3
2022-08-31T17:00:44.740Z,1019.4
2022-08-31T17:06:28.489Z,1019.5
2022-08-31T17:12:11.270Z,1019.5
2022-08-31T17:17:51.867Z,1019.5
2022-08-31T17:23:32.060Z,1019.4
2022-08-31T17:29:12.726Z,1019.5
2022-08-31T17:34:55.281Z,1019.5
2022-08-31T17:40:35.969Z,1019.7
2022-08-31T17:46:17.558Z,1019.7
2022-08-31T17:51:58.951Z,1019.8
2022-08-31T17:57:42.513Z,1019.9
2022-08-31T18:03:25.139Z,1020.1
2022-08-31T18:09:11.649Z,1020.4
2022-08-31T18:14:57.862Z,1020.6
2022-08-31T18:20:40.920Z,1020.8
2022-08-31T18:26:21.281Z,1020.9
2022-08-31T18:32:01.670Z,1021.2
2022-08-31T18:37:42.546Z,1021.2
2022-08-31T18:43:22.866Z,1021.4
2022-08-31T18:49:13.376Z,1021.5
2022-08-31T18:55:01.466Z,1021.8
2022-08-31T19:00:42.261Z,1021.5
2022-08-31T19:06:26.166Z,1021.5
2022-08-31T19:12:09.821Z,1021.6
2022-08-31T19:17:50.382Z,1021.7
2022-08-31T19:23:30.643Z,1022
2022-08-31T19:29:11.055Z,1022.2
2022-08-31T19:34:51.787Z,1022.2
2022-08-31T19:40:39.950Z,1021.9
2022-08-31T19:46:21.584Z,1021.7
2022-08-31T19:52:04.131Z,1021.4
2022-08-31T19:57:45.673Z,1021.3
2022-08-31T20:03:26.543Z,1021.4
2022-08-31T20:09:06.975Z,1021.2
2022-08-31T20:14:47.202Z,1021.2
2022-08-31T20:20:27.618Z,1021.2
2022-08-31T20:26:08.191Z,1021.1
2022-08-31T20:31:48.972Z,1021
2022-08-31T20:37:30.915Z,1021.1
2022-08-31T20:43:11.450Z,1021.2
2022-08-31T20:48:52.283Z,1021.2
2022-08-31T20:54:34.256Z,1021.4
2022-08-31T21:00:14.759Z,1021.6
2022-08-31T21:05:55.048Z,1021.8
2022-08-31T21:11:35.201Z,1021.8
2022-08-31T21:17:15.309Z,1021.9
2022-08-31T21:22:55.908Z,1021.8
2022-08-31T21:28:36.217Z,1022.1
2022-08-31T21:34:24.551Z,1022.2
2022-08-31T21:40:05.901Z,1022.3
2022-08-31T21:45:46.974Z,1022.4
2022-08-31T21:51:28.261Z,1022.4
2022-08-31T21:57:08.928Z,1022.7
2022-08-31T22:02:50.079Z,1022.9
2022-08-31T22:08:31.626Z,1022.8
2022-08-31T22:14:12.333Z,1023.1
2022-08-31T22:19:52.653Z,1023.2
2022-08-31T22:25:33.761Z,1023.2
2022-08-31T22:31:14.636Z,1023.5
2022-08-31T22:36:56.782Z,1023.8
2022-08-31T22:42:37.069Z,1024.2
2022-08-31T22:48:18.836Z,1024.7
2022-08-31T22:53:59.816Z,1024.6
2022-08-31T22:59:39.968Z,1024.7
2022-08-31T23:05:20.187Z,1024.7
2022-08-31T23:11:00.552Z,1025.1
2022-08-31T23:16:41.323Z,1025.5
2022-08-31T23:22:25.058Z,1025.7
2022-08-31T23:28:06.820Z,1025.8
2022-08-31T23:33:46.985Z,1025.9
2022-08-31T23:39:27.434Z,1026.2
2022-08-31T23:45:07.819Z,1026.1
2022-08-31T23:50:47.769Z,1026.1
2022-08-31T23:56:28.031Z,1026.1
